Time;durP1;ratioP1;P1;durP2;ratioP2;P2;SDS_P1;SDS_P2;PMS_P1;PMS_P2;Temp;Humidity;BMP_temperature;BMP_pressure;BME280_temperature;BME280_humidity;BME280_pressure;Samples;Min_cycle;Max_cycle;Signal;HPM_P1;HPM_P2
2023/04/09 00:01:57;;;;;;;98.82;29.73;;;4.80;99.90;;;;;;5115027;28;20207;-72
2023/04/09 00:04:24;;;;;;;90.68;29.50;;;4.80;99.90;;;;;;5115852;28;20565;-72
2023/04/09 00:06:51;;;;;;;93.00;28.38;;;4.80;99.90;;;;;;5116936;28;20216;-72
2023/04/09 00:09:17;;;;;;;62.00;25.73;;;4.80;99.90;;;;;;5114396;28;20199;-72
2023/04/09 00:11:44;;;;;;;68.93;26.23;;;4.80;99.90;;;;;;5113665;28;20679;-72
2023/04/09 00:14:11;;;;;;;64.93;28.27;;;4.80;99.90;;;;;;5114571;28;20252;-72
2023/04/09 00:16:39;;;;;;;53.53;27.63;;;4.80;99.90;;;;;;5114060;28;20294;-73
2023/04/09 00:19:07;;;;;;;60.90;27.60;;;4.80;99.90;;;;;;5114129;28;20599;-72
2023/04/09 00:21:34;;;;;;;54.22;25.52;;;4.80;99.90;;;;;;5114742;28;20200;-73
2023/04/09 00:24:01;;;;;;;48.63;24.67;;;4.80;99.90;;;;;;5114194;28;20199;-73
2023/04/09 00:26:27;;;;;;;51.47;26.73;;;4.80;99.90;;;;;;5114479;28;20224;-73
2023/04/09 00:28:54;;;;;;;64.68;26.90;;;4.80;99.90;;;;;;5118321;28;20195;-73
2023/04/09 00:31:21;;;;;;;37.15;24.45;;;4.70;99.90;;;;;;5118170;28;20203;-73
2023/04/09 00:33:48;;;;;;;47.47;25.95;;;4.70;99.90;;;;;;5117649;28;20673;-72
2023/04/09 00:36:16;;;;;;;42.10;24.65;;;4.70;99.90;;;;;;5118149;28;20219;-73
2023/04/09 00:38:43;;;;;;;69.60;27.55;;;4.70;99.90;;;;;;5118019;28;20203;-73
2023/04/09 00:41:10;;;;;;;39.05;24.25;;;4.70;99.90;;;;;;5118749;28;20686;-73
2023/04/09 00:43:36;;;;;;;40.15;24.15;;;4.60;99.90;;;;;;5118950;28;20615;-74
2023/04/09 00:46:04;;;;;;;45.15;23.40;;;4.60;99.90;;;;;;5118263;28;20215;-73
2023/04/09 00:48:31;;;;;;;60.97;24.52;;;4.60;99.90;;;;;;5118215;28;20200;-72
2023/04/09 00:50:58;;;;;;;44.58;25.20;;;4.60;99.90;;;;;;5118115;28;20200;-71
2023/04/09 00:53:27;;;;;;;36.75;24.48;;;4.60;99.90;;;;;;5118329;28;20203;-72
2023/04/09 00:55:54;;;;;;;38.65;24.65;;;4.60;99.90;;;;;;5117868;28;20735;-72
2023/04/09 00:58:21;;;;;;;34.90;23.25;;;4.70;99.90;;;;;;5117861;28;20218;-72
2023/04/09 01:00:48;;;;;;;65.43;24.33;;;4.70;99.90;;;;;;5117944;28;20206;-72
2023/04/09 01:03:15;;;;;;;34.15;24.48;;;4.70;99.90;;;;;;5117597;28;20195;-73
2023/04/09 01:05:53;;;;;;;36.47;24.10;;;4.80;99.90;;;;;;5117097;28;20723;-72
2023/04/09 01:08:32;;;;;;;33.53;22.75;;;4.80;99.90;;;;;;5118996;28;20184;-72
2023/04/09 01:11:05;;;;;;;38.25;23.38;;;4.80;99.90;;;;;;5117958;28;20194;-72
2023/04/09 01:13:42;;;;;;;38.05;23.98;;;4.80;99.90;;;;;;5117546;28;20180;-72
2023/04/09 01:16:12;;;;;;;32.33;21.98;;;4.80;99.90;;;;;;5117142;28;20223;-73
2023/04/09 01:18:42;;;;;;;33.95;21.63;;;4.80;99.90;;;;;;5116816;28;20668;-72
2023/04/09 01:21:12;;;;;;;35.58;21.98;;;4.70;99.90;;;;;;5117045;28;20209;-72
2023/04/09 01:23:47;;;;;;;35.85;23.70;;;4.60;99.90;;;;;;5116957;28;20295;-72
2023/04/09 01:26:21;;;;;;;32.53;21.55;;;4.60;99.90;;;;;;5139806;22;20226;-63
2023/04/09 01:28:52;;;;;;;36.65;21.73;;;4.50;99.90;;;;;;5118575;28;20192;-63
2023/04/09 01:31:25;;;;;;;38.50;23.15;;;4.40;99.90;;;;;;5116968;28;20192;-63
2023/04/09 01:33:52;;;;;;;32.72;23.23;;;4.40;99.90;;;;;;5116950;28;20188;-63
2023/04/09 01:36:20;;;;;;;37.22;24.15;;;4.30;99.90;;;;;;5116551;28;20692;-63
2023/04/09 01:38:50;;;;;;;34.83;23.60;;;4.30;99.90;;;;;;5115931;28;20196;-63
2023/04/09 01:41:21;;;;;;;29.60;19.67;;;4.30;99.90;;;;;;5116495;28;20502;-62
2023/04/09 01:43:51;;;;;;;33.10;20.98;;;4.30;99.90;;;;;;5116450;28;20190;-63
2023/04/09 01:46:19;;;;;;;33.22;22.45;;;4.20;99.90;;;;;;5116696;28;20221;-63
2023/04/09 01:48:46;;;;;;;33.88;23.98;;;4.30;99.90;;;;;;5116542;28;20200;-63
2023/04/09 01:51:13;;;;;;;33.72;24.17;;;4.20;99.90;;;;;;5119027;28;20684;-62
2023/04/09 01:53:40;;;;;;;35.05;22.42;;;4.20;99.90;;;;;;5117252;28;20199;-63
2023/04/09 01:56:08;;;;;;;35.00;22.77;;;4.20;99.90;;;;;;5116529;28;20713;-62
2023/04/09 01:58:35;;;;;;;30.83;22.30;;;4.10;99.90;;;;;;5119521;28;20223;-62
2023/04/09 02:01:07;;;;;;;38.58;24.13;;;4.10;99.90;;;;;;5118098;28;20551;-63
2023/04/09 02:03:39;;;;;;;34.35;23.33;;;4.00;99.90;;;;;;5117640;28;20192;-62
2023/04/09 02:06:13;;;;;;;39.15;24.50;;;4.10;99.90;;;;;;5116172;28;20226;-64
2023/04/09 02:08:44;;;;;;;46.72;25.73;;;4.00;99.90;;;;;;5116450;28;20195;-62
2023/04/09 02:11:11;;;;;;;33.78;24.25;;;4.10;99.90;;;;;;5120079;28;20230;-63
2023/04/09 02:13:40;;;;;;;33.90;23.55;;;4.00;99.90;;;;;;5121413;28;20625;-64
2023/04/09 02:16:10;;;;;;;39.88;23.58;;;4.00;99.90;;;;;;5121118;28;20220;-62
2023/04/09 02:18:37;;;;;;;95.68;26.85;;;4.10;99.90;;;;;;5123325;28;20192;-63
2023/04/09 02:21:05;;;;;;;78.93;27.40;;;4.10;99.90;;;;;;5120122;28;20291;-63
2023/04/09 02:23:32;;;;;;;65.40;26.63;;;4.00;99.90;;;;;;5119313;28;20212;-63
2023/04/09 02:25:59;;;;;;;54.17;26.00;;;4.00;99.90;;;;;;5118728;28;20227;-63
2023/04/09 02:28:26;;;;;;;58.05;25.52;;;3.90;99.90;;;;;;5117085;28;20200;-62
2023/04/09 02:30:53;;;;;;;69.82;27.45;;;3.90;99.90;;;;;;5120559;28;20200;-62
2023/04/09 02:33:21;;;;;;;53.08;24.98;;;3.90;99.90;;;;;;5117155;28;20203;-63
2023/04/09 02:35:48;;;;;;;39.33;24.42;;;3.90;99.90;;;;;;5117593;28;20405;-61
2023/04/09 02:38:14;;;;;;;45.47;25.38;;;3.90;99.90;;;;;;5119157;28;20224;-63
2023/04/09 02:40:41;;;;;;;39.50;26.17;;;3.90;99.90;;;;;;5116301;28;20203;-62
2023/04/09 02:43:09;;;;;;;41.70;25.60;;;4.00;99.90;;;;;;5116431;28;20231;-63
2023/04/09 02:45:35;;;;;;;39.67;25.08;;;4.00;99.90;;;;;;5117428;28;20226;-63
2023/04/09 02:48:02;;;;;;;32.63;23.20;;;4.00;99.90;;;;;;5118156;28;20196;-63
2023/04/09 02:50:30;;;;;;;41.17;26.02;;;4.10;99.90;;;;;;5118518;28;20210;-63
2023/04/09 02:52:57;;;;;;;34.80;23.75;;;4.10;99.90;;;;;;5120171;28;20663;-63
2023/04/09 02:55:24;;;;;;;41.97;23.35;;;4.10;99.90;;;;;;5118695;28;20222;-63
2023/04/09 02:57:51;;;;;;;92.80;26.38;;;4.10;99.90;;;;;;5116954;28;20212;-62
2023/04/09 03:00:18;;;;;;;50.50;22.00;;;4.10;99.90;;;;;;5115284;28;20694;-62
2023/04/09 03:02:44;;;;;;;64.57;22.83;;;4.00;99.90;;;;;;5115525;28;20200;-62
2023/04/09 03:05:11;;;;;;;45.13;24.15;;;3.90;99.90;;;;;;5115636;28;20214;-63
2023/04/09 03:07:39;;;;;;;50.95;24.33;;;3.90;99.90;;;;;;5115163;28;20207;-63
2023/04/09 03:10:07;;;;;;;45.30;23.42;;;3.80;99.90;;;;;;5115249;28;20664;-63
2023/04/09 03:12:33;;;;;;;44.88;23.42;;;3.80;99.90;;;;;;5116059;28;20195;-63
2023/04/09 03:15:00;;;;;;;49.75;27.15;;;3.80;99.90;;;;;;5116916;28;20199;-64
2023/04/09 03:17:28;;;;;;;36.92;21.98;;;3.80;99.90;;;;;;5115126;28;20223;-63
2023/04/09 03:19:54;;;;;;;58.25;22.95;;;3.80;99.90;;;;;;5116281;28;20540;-62
2023/04/09 03:22:21;;;;;;;77.93;24.67;;;3.80;99.90;;;;;;5115659;28;20240;-62
2023/04/09 03:24:49;;;;;;;78.47;25.00;;;3.80;99.90;;;;;;5114816;28;20200;-62
2023/04/09 03:27:16;;;;;;;74.05;23.83;;;3.70;99.90;;;;;;5114249;28;20224;-63
2023/04/09 03:29:43;;;;;;;98.57;25.35;;;3.70;99.90;;;;;;5114175;28;20203;-63
2023/04/09 03:32:10;;;;;;;40.28;22.98;;;3.70;99.90;;;;;;5114275;28;20667;-63
2023/04/09 03:34:36;;;;;;;48.53;23.75;;;3.70;99.90;;;;;;5114452;28;20202;-63
2023/04/09 03:37:03;;;;;;;44.95;22.10;;;3.60;99.90;;;;;;5114982;28;20220;-62
2023/04/09 03:39:30;;;;;;;44.65;21.80;;;3.70;99.90;;;;;;5114040;28;20204;-63
2023/04/09 03:41:58;;;;;;;55.03;23.00;;;3.70;99.90;;;;;;5114401;28;20206;-62
2023/04/09 03:44:25;;;;;;;45.35;21.77;;;3.70;99.90;;;;;;5118544;28;20196;-63
2023/04/09 03:46:52;;;;;;;43.53;24.00;;;3.70;99.90;;;;;;5117569;28;20308;-62
2023/04/09 03:49:19;;;;;;;89.53;26.13;;;3.70;99.90;;;;;;5114155;28;20203;-63
2023/04/09 03:51:45;;;;;;;38.90;24.42;;;3.70;99.90;;;;;;5114013;28;20366;-62
2023/04/09 03:54:12;;;;;;;68.90;24.80;;;3.70;99.90;;;;;;5114114;28;20199;-63
2023/04/09 03:56:39;;;;;;;43.95;22.30;;;3.70;99.90;;;;;;5113763;28;20219;-63
2023/04/09 03:59:07;;;;;;;37.47;21.35;;;3.60;99.90;;;;;;5114212;28;20210;-63
2023/04/09 04:01:34;;;;;;;59.85;23.00;;;3.60;99.90;;;;;;5114068;28;20202;-62
2023/04/09 04:04:01;;;;;;;54.78;23.65;;;3.70;99.90;;;;;;5113599;28;20756;-62
2023/04/09 04:06:28;;;;;;;52.47;24.92;;;3.70;99.90;;;;;;5114049;28;20271;-62
2023/04/09 04:11:31;;;;;;;58.92;25.92;;;3.60;99.90;;;;;;5111587;27;1263444;-63
2023/04/09 04:13:58;;;;;;;56.00;24.17;;;3.70;99.90;;;;;;5131557;28;20202;-64
2023/04/09 04:16:25;;;;;;;107.97;24.88;;;3.70;99.90;;;;;;5131279;28;20221;-62
2023/04/09 04:18:52;;;;;;;117.47;25.13;;;3.70;99.90;;;;;;5131412;28;20202;-62
2023/04/09 04:21:19;;;;;;;88.97;24.20;;;3.60;99.90;;;;;;5131397;28;20202;-64
2023/04/09 04:23:45;;;;;;;44.28;25.52;;;3.50;99.90;;;;;;5131185;28;20624;-63
2023/04/09 04:26:12;;;;;;;67.82;24.33;;;3.40;99.90;;;;;;5130938;28;20715;-61
2023/04/09 04:28:40;;;;;;;57.67;26.23;;;3.40;99.90;;;;;;5132252;28;20557;-62
2023/04/09 04:31:09;;;;;;;81.78;25.23;;;3.40;99.90;;;;;;5131480;28;20211;-62
2023/04/09 04:33:36;;;;;;;72.28;25.70;;;3.50;99.90;;;;;;5131220;28;20203;-63
2023/04/09 04:36:07;;;;;;;50.17;24.05;;;3.50;99.90;;;;;;5132436;28;20225;-62
2023/04/09 04:38:34;;;;;;;68.63;25.38;;;3.40;99.90;;;;;;5133314;28;20199;-61
2023/04/09 04:41:01;;;;;;;76.00;27.00;;;3.40;99.90;;;;;;5133550;28;20201;-62
2023/04/09 04:43:28;;;;;;;62.55;25.08;;;3.40;99.90;;;;;;5134092;28;20229;-63
2023/04/09 04:45:56;;;;;;;65.10;23.95;;;3.40;99.90;;;;;;5133844;28;20222;-63
2023/04/09 04:48:23;;;;;;;52.92;25.15;;;3.40;99.90;;;;;;5133521;28;20199;-63
2023/04/09 04:50:55;;;;;;;38.38;21.85;;;3.40;99.90;;;;;;5133818;28;20215;-62
2023/04/09 04:53:22;;;;;;;60.72;24.45;;;3.40;99.90;;;;;;5134022;28;20207;-63
2023/04/09 04:55:49;;;;;;;81.07;25.05;;;3.50;99.90;;;;;;5137763;28;20215;-62
2023/04/09 04:58:16;;;;;;;81.60;24.70;;;3.50;99.90;;;;;;5140074;28;20203;-62
2023/04/09 05:00:43;;;;;;;77.10;24.38;;;3.50;99.90;;;;;;5136903;28;20191;-66
2023/04/09 05:03:11;;;;;;;47.10;23.45;;;3.50;99.90;;;;;;5130802;28;20225;-62
2023/04/09 05:05:38;;;;;;;65.00;25.83;;;3.50;99.90;;;;;;5131164;28;20219;-63
2023/04/09 05:08:05;;;;;;;46.20;24.02;;;3.50;99.90;;;;;;5130974;28;20203;-62
2023/04/09 05:10:32;;;;;;;50.92;26.80;;;3.50;99.90;;;;;;5136293;28;20318;-62
2023/04/09 05:12:59;;;;;;;83.10;26.55;;;3.50;99.90;;;;;;5133624;28;20201;-62
2023/04/09 05:15:26;;;;;;;67.97;24.63;;;3.50;99.90;;;;;;5130582;28;20219;-62
2023/04/09 05:17:53;;;;;;;35.13;21.40;;;3.50;99.90;;;;;;5130276;28;20207;-62
2023/04/09 05:20:21;;;;;;;50.25;26.52;;;3.50;99.90;;;;;;5130863;28;20282;-61
2023/04/09 05:22:48;;;;;;;47.97;24.38;;;3.50;99.90;;;;;;5118607;28;20537;-62
2023/04/09 05:25:16;;;;;;;60.17;23.73;;;3.60;99.90;;;;;;5121264;28;20271;-63
2023/04/09 05:27:42;;;;;;;52.17;25.02;;;3.60;99.90;;;;;;5121082;28;20204;-62
2023/04/09 05:30:10;;;;;;;51.30;25.05;;;3.70;99.90;;;;;;5117006;28;20219;-62
2023/04/09 05:32:37;;;;;;;58.53;25.45;;;3.70;99.90;;;;;;5116300;28;20218;-63
2023/04/09 05:35:04;;;;;;;42.85;24.55;;;3.80;99.90;;;;;;5116585;28;20200;-63
2023/04/09 05:37:32;;;;;;;48.70;23.73;;;3.90;99.90;;;;;;5116972;28;20199;-62
2023/04/09 05:39:59;;;;;;;53.65;25.55;;;3.90;99.90;;;;;;5116655;28;20286;-62
2023/04/09 05:42:26;;;;;;;50.83;24.27;;;4.00;99.90;;;;;;5116273;28;20206;-62
2023/04/09 05:44:53;;;;;;;46.75;22.80;;;4.00;99.90;;;;;;5116654;28;20223;-61
2023/04/09 05:47:20;;;;;;;35.47;22.83;;;4.00;99.90;;;;;;5118332;28;20242;-62
2023/04/09 05:49:47;;;;;;;49.50;23.45;;;4.00;99.90;;;;;;5117574;28;20200;-63
2023/04/09 05:52:14;;;;;;;35.80;23.23;;;4.00;99.90;;;;;;5115751;28;20601;-63
2023/04/09 05:54:43;;;;;;;35.42;22.23;;;4.10;99.90;;;;;;5116214;28;20200;-62
2023/04/09 05:57:10;;;;;;;38.15;21.05;;;4.10;99.90;;;;;;5115793;28;20224;-62
2023/04/09 05:59:37;;;;;;;37.35;20.77;;;4.20;99.90;;;;;;5115931;28;20200;-62
2023/04/09 06:02:03;;;;;;;26.85;18.67;;;4.30;99.90;;;;;;5116589;28;20307;-62
2023/04/09 06:04:30;;;;;;;33.58;20.42;;;4.30;99.90;;;;;;5115772;28;20673;-62
2023/04/09 06:06:59;;;;;;;39.30;19.08;;;4.30;99.90;;;;;;5116145;28;20284;-62
2023/04/09 06:09:26;;;;;;;34.92;19.98;;;4.40;99.90;;;;;;5115926;28;20218;-62
2023/04/09 06:11:54;;;;;;;30.90;18.42;;;4.40;99.90;;;;;;5115396;28;20219;-61
2023/04/09 06:14:21;;;;;;;34.38;19.17;;;4.50;99.90;;;;;;5115742;28;20287;-61
2023/04/09 06:16:48;;;;;;;26.38;18.35;;;4.60;99.90;;;;;;5115381;28;20712;-62
2023/04/09 06:19:16;;;;;;;33.88;20.30;;;4.70;99.90;;;;;;5115789;28;20210;-62
2023/04/09 06:21:43;;;;;;;30.20;19.65;;;4.80;99.90;;;;;;5117117;28;20242;-61
2023/04/09 06:24:10;;;;;;;27.30;19.17;;;4.90;99.90;;;;;;5115478;28;20210;-61
2023/04/09 06:26:36;;;;;;;27.00;17.50;;;4.90;99.90;;;;;;5115636;28;20251;-63
2023/04/09 06:29:05;;;;;;;30.95;19.50;;;5.00;99.90;;;;;;5115686;28;20202;-62
2023/04/09 06:31:32;;;;;;;34.40;20.25;;;5.10;99.90;;;;;;5115408;28;20689;-64
2023/04/09 06:33:58;;;;;;;26.92;18.70;;;5.20;99.90;;;;;;5114100;28;20204;-61
2023/04/09 06:36:26;;;;;;;29.13;19.23;;;5.20;99.90;;;;;;5115102;28;20226;-63
2023/04/09 06:38:53;;;;;;;30.80;19.67;;;5.20;99.90;;;;;;5115176;28;20211;-62
2023/04/09 06:41:21;;;;;;;29.48;18.20;;;5.30;99.90;;;;;;5115851;28;20199;-62
2023/04/09 06:43:47;;;;;;;28.38;17.85;;;5.30;99.90;;;;;;5114892;28;20292;-63
2023/04/09 06:46:18;;;;;;;23.70;17.95;;;5.40;99.90;;;;;;5114803;28;20222;-63
2023/04/09 06:48:45;;;;;;;26.80;18.05;;;5.40;99.90;;;;;;5115318;28;20199;-62
2023/04/09 06:51:13;;;;;;;27.02;16.40;;;5.50;99.90;;;;;;5115553;28;20271;-62
2023/04/09 06:53:40;;;;;;;29.73;18.83;;;5.50;99.90;;;;;;5114885;28;20697;-62
2023/04/09 06:56:07;;;;;;;29.83;17.38;;;5.60;99.90;;;;;;5115382;28;20238;-63
2023/04/09 06:58:34;;;;;;;28.73;16.80;;;5.70;99.90;;;;;;5115264;28;20200;-63
2023/04/09 07:01:01;;;;;;;27.42;17.60;;;5.80;99.90;;;;;;5115622;28;20549;-62
2023/04/09 07:03:29;;;;;;;33.50;19.23;;;6.00;99.90;;;;;;5119456;28;20196;-63
2023/04/09 07:05:56;;;;;;;23.52;16.50;;;6.10;99.90;;;;;;5116313;28;20216;-62
2023/04/09 07:08:23;;;;;;;28.58;16.90;;;6.30;99.90;;;;;;5114846;28;20574;-63
2023/04/09 07:10:50;;;;;;;29.02;18.30;;;6.40;99.90;;;;;;5115210;28;20314;-61
2023/04/09 07:13:17;;;;;;;26.38;16.60;;;6.50;99.90;;;;;;5116614;28;20203;-63
2023/04/09 07:15:44;;;;;;;23.80;16.83;;;6.60;99.90;;;;;;5115778;28;20224;-63
2023/04/09 07:18:11;;;;;;;28.42;18.40;;;6.60;99.90;;;;;;5118689;28;20206;-62
2023/04/09 07:20:39;;;;;;;37.33;21.88;;;6.70;99.90;;;;;;5114311;28;20204;-63
2023/04/09 07:23:06;;;;;;;30.85;21.50;;;6.80;99.90;;;;;;5114418;28;20199;-61
2023/04/09 07:25:33;;;;;;;37.90;21.38;;;6.80;99.90;;;;;;5130380;22;20221;-71
2023/04/09 07:27:59;;;;;;;31.85;21.35;;;6.80;99.90;;;;;;5054744;28;20189;-73
2023/04/09 07:30:26;;;;;;;41.50;21.83;;;6.80;99.90;;;;;;5054533;28;20328;-72
2023/04/09 07:32:53;;;;;;;35.17;20.55;;;6.80;99.90;;;;;;5055362;28;20212;-73
2023/04/09 07:35:20;;;;;;;37.55;23.85;;;6.80;99.90;;;;;;5055419;28;20204;-72
2023/04/09 07:37:49;;;;;;;42.15;22.60;;;6.90;99.90;;;;;;5056303;28;20202;-72
2023/04/09 07:40:16;;;;;;;42.28;23.80;;;7.10;99.90;;;;;;5055649;28;20275;-72
2023/04/09 07:42:42;;;;;;;35.63;23.55;;;7.30;99.90;;;;;;5055314;28;20202;-72
2023/04/09 07:45:09;;;;;;;35.70;22.92;;;7.50;99.90;;;;;;5056166;28;20198;-72
2023/04/09 07:47:38;;;;;;;34.05;22.88;;;7.70;99.90;;;;;;5055944;28;20209;-72
2023/04/09 07:50:06;;;;;;;38.85;24.08;;;7.80;99.90;;;;;;5055694;28;20205;-73
2023/04/09 07:52:33;;;;;;;36.85;23.63;;;8.00;99.90;;;;;;5057149;28;20233;-74
2023/04/09 07:55:01;;;;;;;44.25;25.08;;;8.00;99.90;;;;;;5062252;28;20197;-73
2023/04/09 07:57:28;;;;;;;42.17;24.73;;;8.10;99.90;;;;;;5064827;28;20809;-71
2023/04/09 07:59:55;;;;;;;37.58;21.75;;;8.10;99.90;;;;;;5061732;28;20232;-72
2023/04/09 08:02:22;;;;;;;37.85;24.90;;;8.10;99.90;;;;;;5057428;28;20197;-72
2023/04/09 08:04:49;;;;;;;38.60;25.30;;;8.20;99.90;;;;;;5057854;28;20201;-72
2023/04/09 08:07:16;;;;;;;36.83;22.63;;;8.30;99.90;;;;;;5056430;28;20710;-72
2023/04/09 08:09:43;;;;;;;35.53;24.33;;;8.40;99.90;;;;;;5056315;28;20214;-72
2023/04/09 08:12:11;;;;;;;36.33;24.55;;;8.70;99.90;;;;;;5054838;28;20223;-72
2023/04/09 08:14:38;;;;;;;39.08;23.45;;;8.80;99.90;;;;;;5058081;28;20202;-72
2023/04/09 08:17:04;;;;;;;36.35;22.08;;;9.00;99.90;;;;;;5056189;28;20809;-72
2023/04/09 08:19:31;;;;;;;33.28;22.15;;;9.10;99.90;;;;;;5056479;28;20205;-72
2023/04/09 08:21:58;;;;;;;28.55;19.15;;;9.10;99.90;;;;;;5055629;28;20241;-72
2023/04/09 08:24:25;;;;;;;29.70;19.25;;;9.10;99.90;;;;;;5057646;28;20577;-72
2023/04/09 08:26:53;;;;;;;25.27;17.73;;;9.10;99.90;;;;;;5057013;28;20295;-72
2023/04/09 08:29:21;;;;;;;26.02;17.58;;;9.20;99.90;;;;;;5061192;28;20206;-72
2023/04/09 08:31:48;;;;;;;24.42;18.08;;;9.30;99.90;;;;;;5062156;28;20241;-73
2023/04/09 08:34:16;;;;;;;27.35;19.40;;;9.30;99.90;;;;;;5062034;28;20292;-72
2023/04/09 08:36:46;;;;;;;24.90;17.40;;;9.40;99.90;;;;;;5061455;28;20227;-72
2023/04/09 08:39:12;;;;;;;27.33;19.77;;;9.50;99.90;;;;;;5060799;28;20478;-71
2023/04/09 08:41:43;;;;;;;24.67;17.90;;;9.60;99.90;;;;;;5062181;28;20281;-71
2023/04/09 08:44:10;;;;;;;26.23;17.70;;;9.50;99.90;;;;;;5062208;28;20467;-72
2023/04/09 08:46:38;;;;;;;26.40;16.87;;;9.40;99.90;;;;;;5059195;28;20232;-71
2023/04/09 08:49:05;;;;;;;26.80;18.75;;;9.40;99.90;;;;;;5056000;28;20534;-72
2023/04/09 08:51:32;;;;;;;26.35;18.08;;;9.50;99.90;;;;;;5057609;28;20249;-71
2023/04/09 08:54:00;;;;;;;30.08;18.85;;;9.60;99.90;;;;;;5059172;28;20205;-72
2023/04/09 08:56:27;;;;;;;24.80;17.97;;;9.60;99.90;;;;;;5059349;28;20229;-73
2023/04/09 08:58:55;;;;;;;25.73;20.30;;;9.70;99.90;;;;;;5062262;28;20451;-73
2023/04/09 09:01:23;;;;;;;29.75;19.60;;;9.80;99.90;;;;;;5062154;28;20937;-72
2023/04/09 09:03:56;;;;;;;32.50;20.27;;;9.90;99.90;;;;;;5064297;28;20202;-73
2023/04/09 09:06:24;;;;;;;30.10;21.20;;;10.10;99.90;;;;;;5060516;28;20458;-72
2023/04/09 09:09:01;;;;;;;30.20;21.90;;;10.10;99.90;;;;;;5059732;28;20452;-73
2023/04/09 09:11:29;;;;;;;32.40;22.37;;;10.30;99.90;;;;;;5060493;28;20468;-73
2023/04/09 09:14:00;;;;;;;36.80;24.83;;;10.50;99.90;;;;;;5060401;28;20506;-71
2023/04/09 09:16:27;;;;;;;39.83;23.83;;;10.50;99.90;;;;;;5060410;28;20502;-73
2023/04/09 09:18:56;;;;;;;41.77;24.83;;;10.60;99.90;;;;;;5060669;28;20481;-73
2023/04/09 09:21:23;;;;;;;35.80;23.83;;;10.60;99.90;;;;;;5059453;28;20436;-74
2023/04/09 09:23:50;;;;;;;35.73;24.97;;;10.70;99.90;;;;;;5064824;28;20447;-73
2023/04/09 09:26:19;;;;;;;30.27;21.73;;;10.70;99.90;;;;;;5058714;28;20506;-74
2023/04/09 09:28:47;;;;;;;34.53;22.80;;;10.70;99.90;;;;;;5058102;28;20994;-74
2023/04/09 09:31:14;;;;;;;37.97;24.07;;;10.70;99.90;;;;;;5058895;28;20484;-74
2023/04/09 09:33:42;;;;;;;35.93;25.13;;;10.70;99.90;;;;;;5059305;28;20857;-74
2023/04/09 09:36:10;;;;;;;39.40;27.30;;;10.80;99.90;;;;;;5059467;28;20464;-72
2023/04/09 09:38:53;;;;;;;38.20;27.80;;;10.90;99.90;;;;;;5059780;28;20445;-72
2023/04/09 09:41:20;;;;;;;41.63;26.37;;;10.90;99.90;;;;;;5059219;28;20806;-72
2023/04/09 09:43:47;;;;;;;36.77;27.57;;;10.90;99.90;;;;;;5059075;28;20447;-74
2023/04/09 09:46:14;;;;;;;41.33;29.37;;;11.00;99.90;;;;;;5059001;28;20464;-73
2023/04/09 09:48:42;;;;;;;38.67;29.37;;;11.20;99.90;;;;;;5059116;28;20445;-73
2023/04/09 09:51:12;;;;;;;39.73;29.43;;;11.30;99.90;;;;;;5058567;28;21005;-72
2023/04/09 09:53:40;;;;;;;40.00;27.90;;;11.50;99.90;;;;;;5059472;28;20471;-74
2023/04/09 09:56:12;;;;;;;35.37;25.97;;;11.60;99.90;;;;;;5058137;28;20992;-73
2023/04/09 09:58:44;;;;;;;36.30;27.70;;;11.70;99.80;;;;;;5057752;28;20515;-73
2023/04/09 10:01:13;;;;;;;44.27;29.07;;;11.80;99.40;;;;;;5057275;28;20433;-73
2023/04/09 10:03:42;;;;;;;45.63;29.87;;;11.90;98.70;;;;;;5058776;28;20444;-72
2023/04/09 10:06:11;;;;;;;43.47;30.07;;;11.80;98.50;;;;;;5058091;28;20621;-72
2023/04/09 10:08:40;;;;;;;39.30;29.57;;;11.80;98.50;;;;;;5056977;28;20448;-72
2023/04/09 10:11:07;;;;;;;49.40;32.10;;;11.80;98.70;;;;;;5057081;28;20792;-71
2023/04/09 10:13:37;;;;;;;42.57;31.10;;;11.80;98.10;;;;;;5057428;28;20519;-72
2023/04/09 10:16:06;;;;;;;44.07;32.00;;;11.90;97.90;;;;;;5057059;28;20464;-73
2023/04/09 10:18:33;;;;;;;42.30;30.57;;;11.90;97.60;;;;;;5058321;28;20448;-72
2023/04/09 10:21:09;;;;;;;43.07;30.90;;;12.10;97.10;;;;;;5058710;28;20478;-73
2023/04/09 10:23:40;;;;;;;42.37;30.33;;;12.00;96.40;;;;;;5060446;28;20436;-72
2023/04/09 10:26:07;;;;;;;41.00;29.90;;;12.00;96.30;;;;;;5056926;28;20519;-74
2023/04/09 10:28:36;;;;;;;39.20;29.40;;;12.00;96.60;;;;;;5056381;28;20448;-73
2023/04/09 10:31:05;;;;;;;44.97;31.00;;;12.20;96.40;;;;;;5056379;28;20448;-72
2023/04/09 10:33:32;;;;;;;43.50;31.40;;;12.40;95.60;;;;;;5056073;28;20991;-72
2023/04/09 10:36:01;;;;;;;44.23;28.80;;;12.60;94.00;;;;;;5055854;28;20543;-73
2023/04/09 10:38:36;;;;;;;38.40;27.20;;;12.80;92.50;;;;;;5055894;28;20458;-72
2023/04/09 10:41:15;;;;;;;38.87;26.60;;;12.90;91.70;;;;;;5056088;28;20475;-72
2023/04/09 10:43:43;;;;;;;33.63;25.30;;;13.10;89.80;;;;;;5056650;28;20428;-72
2023/04/09 10:46:25;;;;;;;33.37;21.50;;;13.30;88.70;;;;;;5056616;28;20474;-72
2023/04/09 10:49:07;;;;;;;30.77;22.43;;;13.50;85.80;;;;;;5055977;28;20451;-72
2023/04/09 10:51:37;;;;;;;34.30;22.70;;;13.50;82.20;;;;;;5055714;28;20468;-73
2023/04/09 10:54:04;;;;;;;28.70;21.30;;;13.40;81.20;;;;;;5055371;28;20448;-72
2023/04/09 10:56:33;;;;;;;29.13;20.73;;;13.20;81.50;;;;;;5055680;28;20472;-74
2023/04/09 10:59:00;;;;;;;32.57;23.00;;;12.90;81.60;;;;;;5055507;28;20444;-71
2023/04/09 11:01:27;;;;;;;27.33;21.10;;;12.70;82.30;;;;;;5055296;28;20554;-72
2023/04/09 11:04:09;;;;;;;28.87;19.23;;;12.40;84.00;;;;;;5055108;28;20448;-71
2023/04/09 11:06:37;;;;;;;30.13;20.63;;;12.30;86.70;;;;;;5055630;28;20626;-72
2023/04/09 11:09:04;;;;;;;27.77;19.07;;;12.30;87.50;;;;;;5055496;28;20440;-72
2023/04/09 11:11:34;;;;;;;23.03;17.50;;;12.20;88.00;;;;;;5055553;28;20440;-73
2023/04/09 11:14:01;;;;;;;27.20;18.17;;;12.20;88.50;;;;;;5056025;28;20439;-72
2023/04/09 11:16:30;;;;;;;24.27;17.90;;;12.20;88.60;;;;;;5060675;28;20488;-72
2023/04/09 11:18:57;;;;;;;28.27;17.60;;;12.10;89.40;;;;;;5058078;28;20455;-72
2023/04/09 11:21:28;;;;;;;26.73;16.53;;;12.10;89.70;;;;;;5058777;28;20542;-73
2023/04/09 11:23:55;;;;;;;26.23;18.87;;;12.10;90.00;;;;;;5058522;28;20941;-71
2023/04/09 11:26:28;;;;;;;32.63;19.87;;;12.10;89.90;;;;;;5058527;28;20472;-71
2023/04/09 11:28:57;;;;;;;29.00;18.43;;;12.20;89.60;;;;;;5055866;28;20527;-71
2023/04/09 11:31:28;;;;;;;29.97;18.83;;;12.20;88.50;;;;;;5055681;28;20479;-73
2023/04/09 11:33:55;;;;;;;25.97;18.17;;;12.20;88.70;;;;;;5055285;28;20478;-72
2023/04/09 11:36:22;;;;;;;23.17;15.97;;;12.20;88.40;;;;;;5055308;28;20904;-71
2023/04/09 11:38:49;;;;;;;30.07;20.47;;;12.00;89.10;;;;;;5055097;28;20506;-73
2023/04/09 11:41:16;;;;;;;26.33;18.00;;;11.90;90.20;;;;;;5056396;28;20444;-72
2023/04/09 11:43:43;;;;;;;28.13;19.97;;;11.80;90.90;;;;;;5056374;28;20433;-72
2023/04/09 11:46:12;;;;;;;27.07;18.57;;;11.70;91.40;;;;;;5055546;28;20455;-73
2023/04/09 11:48:39;;;;;;;25.90;19.40;;;11.60;91.90;;;;;;5056241;28;20451;-73
2023/04/09 11:51:06;;;;;;;24.20;19.03;;;11.50;92.60;;;;;;5055324;28;20791;-71
2023/04/09 11:53:33;;;;;;;28.80;18.90;;;11.50;92.70;;;;;;5054717;28;20846;-73
2023/04/09 11:56:00;;;;;;;26.73;19.43;;;11.50;92.40;;;;;;5055289;28;20464;-71
2023/04/09 11:58:27;;;;;;;29.27;19.40;;;11.40;92.40;;;;;;5055621;28;20479;-75
2023/04/09 12:00:55;;;;;;;26.67;16.90;;;11.40;92.40;;;;;;5055007;28;20443;-72
2023/04/09 12:03:31;;;;;;;27.57;18.17;;;11.50;92.60;;;;;;5054934;28;20448;-73
2023/04/09 12:06:01;;;;;;;26.07;16.87;;;11.60;92.30;;;;;;5057139;28;20472;-73
2023/04/09 12:08:28;;;;;;;26.43;17.40;;;11.70;91.60;;;;;;5056464;28;20448;-72
2023/04/09 12:10:54;;;;;;;25.27;18.30;;;11.90;91.00;;;;;;5055656;28;20822;-74
2023/04/09 12:13:22;;;;;;;26.40;17.63;;;12.10;89.80;;;;;;5055734;28;21047;-72
2023/04/09 12:15:49;;;;;;;26.67;18.33;;;12.40;87.90;;;;;;5056019;28;20468;-73
2023/04/09 12:18:16;;;;;;;24.97;16.83;;;12.70;84.80;;;;;;5055869;28;20490;-73
2023/04/09 12:20:48;;;;;;;22.77;15.83;;;13.00;82.70;;;;;;5055407;28;20440;-72
2023/04/09 12:23:16;;;;;;;26.00;17.87;;;13.30;80.00;;;;;;5056816;28;20471;-73
2023/04/09 12:25:46;;;;;;;22.50;16.83;;;13.50;77.00;;;;;;5057858;28;20464;-73
2023/04/09 12:28:16;;;;;;;24.53;16.80;;;13.70;74.80;;;;;;5057539;28;20440;-74
2023/04/09 12:30:44;;;;;;;25.47;18.30;;;13.90;73.40;;;;;;5058545;28;20444;-73
2023/04/09 12:33:11;;;;;;;26.20;18.93;;;14.10;71.80;;;;;;5065206;28;20483;-73
2023/04/09 12:35:37;;;;;;;23.23;17.80;;;14.30;69.60;;;;;;5064714;28;20464;-73
2023/04/09 12:38:06;;;;;;;27.97;18.57;;;14.40;68.20;;;;;;5064520;28;20949;-73
2023/04/09 12:40:33;;;;;;;28.13;18.70;;;14.50;67.10;;;;;;5060652;28;20501;-73